Amf Ohare, Illinois
Current Conditions -  °F | °C
As of 10:51 AM on Monday 22 Dec 2014 (Local Time) from KORD Reporting Station
Ice Pellets Ice Pellets  
Wind Chill: 27°   Ceiling: 4100
Heat Index: 35°   Visibility: 4mi
Dew Point: 29°   Wind: 12mph
Humidity: 78%   Direction: 130°SE
Pressure: 29.85"   Gusts: NA
Location:  41.968°N, 87.8912°W
Report Text: KORD 221651Z 13010KT 4SM -RAPL OVC041 02/M02 A2985 RMK AO2 RAB43PLB43 SLP114 P0000 T00171017
Loading
Personal Weather Stations






























Interactive Weather Map New forecast layout! Learn more

10-Day Weather Forecast

Advertisements
Track Severe Weather on mobile